sensor_id;sensor_type;location;lat;lon;timestamp;P1;durP1;ratioP1;P2;durP2;ratioP2
30378;SDS011;17168;49.164;9.060;2023-07-30T00:00:57;3.78;;;1.83;;
30378;SDS011;17168;49.164;9.060;2023-07-30T00:03:29;2.50;;;1.70;;
30378;SDS011;17168;49.164;9.060;2023-07-30T00:06:02;3.15;;;1.17;;
30378;SDS011;17168;49.164;9.060;2023-07-30T00:08:40;3.13;;;1.73;;
30378;SDS011;17168;49.164;9.060;2023-07-30T00:11:16;2.10;;;1.27;;
30378;SDS011;17168;49.164;9.060;2023-07-30T00:14:07;2.42;;;1.02;;
30378;SDS011;17168;49.164;9.060;2023-07-30T00:16:49;2.42;;;1.50;;
30378;SDS011;17168;49.164;9.060;2023-07-30T00:19:22;3.20;;;1.50;;
30378;SDS011;17168;49.164;9.060;2023-07-30T00:21:54;2.65;;;1.42;;
30378;SDS011;17168;49.164;9.060;2023-07-30T00:24:26;2.80;;;1.27;;
30378;SDS011;17168;49.164;9.060;2023-07-30T00:26:58;1.77;;;0.98;;
30378;SDS011;17168;49.164;9.060;2023-07-30T00:29:31;2.15;;;1.20;;
30378;SDS011;17168;49.164;9.060;2023-07-30T00:32:06;4.07;;;1.50;;
30378;SDS011;17168;49.164;9.060;2023-07-30T00:34:40;1.73;;;0.85;;
30378;SDS011;17168;49.164;9.060;2023-07-30T00:37:12;2.45;;;1.67;;
30378;SDS011;17168;49.164;9.060;2023-07-30T00:39:44;3.08;;;1.25;;
30378;SDS011;17168;49.164;9.060;2023-07-30T00:42:16;2.15;;;1.05;;
30378;SDS011;17168;49.164;9.060;2023-07-30T00:44:48;3.28;;;0.65;;
30378;SDS011;17168;49.164;9.060;2023-07-30T00:47:23;2.65;;;0.82;;
30378;SDS011;17168;49.164;9.060;2023-07-30T00:49:57;2.05;;;1.02;;
30378;SDS011;17168;49.164;9.060;2023-07-30T00:52:30;2.33;;;1.05;;
30378;SDS011;17168;49.164;9.060;2023-07-30T00:55:05;1.92;;;0.68;;
30378;SDS011;17168;49.164;9.060;2023-07-30T00:57:39;2.00;;;0.90;;
30378;SDS011;17168;49.164;9.060;2023-07-30T01:00:13;2.25;;;0.73;;
30378;SDS011;17168;49.164;9.060;2023-07-30T01:02:48;3.42;;;1.05;;
30378;SDS011;17168;49.164;9.060;2023-07-30T01:05:20;1.95;;;0.65;;
30378;SDS011;17168;49.164;9.060;2023-07-30T01:07:52;1.63;;;0.80;;
30378;SDS011;17168;49.164;9.060;2023-07-30T01:10:25;2.35;;;0.63;;
30378;SDS011;17168;49.164;9.060;2023-07-30T01:12:59;1.90;;;0.82;;
30378;SDS011;17168;49.164;9.060;2023-07-30T01:15:33;1.85;;;0.50;;
30378;SDS011;17168;49.164;9.060;2023-07-30T01:18:07;1.80;;;0.80;;
30378;SDS011;17168;49.164;9.060;2023-07-30T01:20:40;1.88;;;0.40;;
30378;SDS011;17168;49.164;9.060;2023-07-30T01:23:14;1.60;;;0.52;;
30378;SDS011;17168;49.164;9.060;2023-07-30T01:25:47;1.13;;;0.43;;
30378;SDS011;17168;49.164;9.060;2023-07-30T01:28:28;1.65;;;0.52;;
30378;SDS011;17168;49.164;9.060;2023-07-30T01:31:03;4.90;;;0.55;;
30378;SDS011;17168;49.164;9.060;2023-07-30T01:33:38;1.70;;;0.30;;
30378;SDS011;17168;49.164;9.060;2023-07-30T01:36:12;1.95;;;0.52;;
30378;SDS011;17168;49.164;9.060;2023-07-30T01:38:50;2.30;;;0.55;;
30378;SDS011;17168;49.164;9.060;2023-07-30T01:41:23;5.40;;;0.50;;
30378;SDS011;17168;49.164;9.060;2023-07-30T01:43:56;2.40;;;0.60;;
30378;SDS011;17168;49.164;9.060;2023-07-30T01:46:28;1.25;;;0.73;;
30378;SDS011;17168;49.164;9.060;2023-07-30T01:49:00;2.17;;;0.60;;
30378;SDS011;17168;49.164;9.060;2023-07-30T01:51:32;1.85;;;0.65;;
30378;SDS011;17168;49.164;9.060;2023-07-30T01:54:07;1.90;;;0.52;;
30378;SDS011;17168;49.164;9.060;2023-07-30T01:56:39;3.38;;;1.05;;
30378;SDS011;17168;49.164;9.060;2023-07-30T01:59:11;1.35;;;0.63;;
30378;SDS011;17168;49.164;9.060;2023-07-30T02:01:43;1.35;;;0.60;;
30378;SDS011;17168;49.164;9.060;2023-07-30T02:04:16;2.20;;;0.82;;
30378;SDS011;17168;49.164;9.060;2023-07-30T02:06:49;1.50;;;0.65;;
30378;SDS011;17168;49.164;9.060;2023-07-30T02:09:24;2.08;;;0.77;;
30378;SDS011;17168;49.164;9.060;2023-07-30T02:11:56;1.08;;;0.45;;
30378;SDS011;17168;49.164;9.060;2023-07-30T02:14:29;2.83;;;0.68;;
30378;SDS011;17168;49.164;9.060;2023-07-30T02:17:01;1.60;;;0.70;;
30378;SDS011;17168;49.164;9.060;2023-07-30T02:19:33;3.03;;;0.90;;
30378;SDS011;17168;49.164;9.060;2023-07-30T02:22:05;1.58;;;0.80;;
30378;SDS011;17168;49.164;9.060;2023-07-30T02:24:40;2.20;;;0.93;;
30378;SDS011;17168;49.164;9.060;2023-07-30T02:27:12;2.38;;;0.80;;
30378;SDS011;17168;49.164;9.060;2023-07-30T02:29:44;2.22;;;1.02;;
30378;SDS011;17168;49.164;9.060;2023-07-30T02:32:17;1.50;;;0.73;;
30378;SDS011;17168;49.164;9.060;2023-07-30T02:34:49;4.40;;;0.75;;
30378;SDS011;17168;49.164;9.060;2023-07-30T02:37:21;2.08;;;1.10;;
30378;SDS011;17168;49.164;9.060;2023-07-30T02:39:56;2.38;;;0.98;;
30378;SDS011;17168;49.164;9.060;2023-07-30T02:42:28;3.38;;;0.80;;
30378;SDS011;17168;49.164;9.060;2023-07-30T02:45:00;2.10;;;1.30;;
30378;SDS011;17168;49.164;9.060;2023-07-30T02:47:33;3.92;;;0.98;;
30378;SDS011;17168;49.164;9.060;2023-07-30T02:50:05;2.22;;;1.25;;
30378;SDS011;17168;49.164;9.060;2023-07-30T02:52:41;2.10;;;0.80;;
30378;SDS011;17168;49.164;9.060;2023-07-30T02:55:19;2.60;;;1.38;;
30378;SDS011;17168;49.164;9.060;2023-07-30T02:57:51;1.92;;;0.90;;
30378;SDS011;17168;49.164;9.060;2023-07-30T03:00:23;2.78;;;1.55;;
30378;SDS011;17168;49.164;9.060;2023-07-30T03:02:55;2.15;;;0.98;;
30378;SDS011;17168;49.164;9.060;2023-07-30T03:05:28;2.38;;;1.00;;
30378;SDS011;17168;49.164;9.060;2023-07-30T03:08:01;1.90;;;1.08;;
30378;SDS011;17168;49.164;9.060;2023-07-30T03:10:36;4.72;;;1.42;;
30378;SDS011;17168;49.164;9.060;2023-07-30T03:13:08;3.00;;;1.90;;
30378;SDS011;17168;49.164;9.060;2023-07-30T03:15:40;2.58;;;1.65;;
30378;SDS011;17168;49.164;9.060;2023-07-30T03:18:12;3.03;;;1.65;;
30378;SDS011;17168;49.164;9.060;2023-07-30T03:20:44;3.17;;;1.75;;
30378;SDS011;17168;49.164;9.060;2023-07-30T03:23:16;4.60;;;1.35;;
30378;SDS011;17168;49.164;9.060;2023-07-30T03:25:51;5.50;;;1.73;;
30378;SDS011;17168;49.164;9.060;2023-07-30T03:28:23;3.53;;;1.67;;
30378;SDS011;17168;49.164;9.060;2023-07-30T03:30:56;3.22;;;1.55;;
30378;SDS011;17168;49.164;9.060;2023-07-30T03:33:28;3.05;;;2.40;;
30378;SDS011;17168;49.164;9.060;2023-07-30T03:36:06;4.85;;;2.00;;
30378;SDS011;17168;49.164;9.060;2023-07-30T03:38:41;4.95;;;2.40;;
30378;SDS011;17168;49.164;9.060;2023-07-30T03:41:16;3.78;;;2.30;;
30378;SDS011;17168;49.164;9.060;2023-07-30T03:43:49;3.25;;;2.30;;
30378;SDS011;17168;49.164;9.060;2023-07-30T03:46:21;4.43;;;2.38;;
30378;SDS011;17168;49.164;9.060;2023-07-30T03:48:56;7.78;;;4.25;;
30378;SDS011;17168;49.164;9.060;2023-07-30T03:51:28;5.85;;;3.15;;
30378;SDS011;17168;49.164;9.060;2023-07-30T03:54:00;5.63;;;3.45;;
30378;SDS011;17168;49.164;9.060;2023-07-30T03:59:24;5.00;;;3.13;;
30378;SDS011;17168;49.164;9.060;2023-07-30T04:01:56;5.80;;;3.25;;
30378;SDS011;17168;49.164;9.060;2023-07-30T04:04:28;5.57;;;3.20;;
30378;SDS011;17168;49.164;9.060;2023-07-30T04:07:00;4.25;;;3.17;;
30378;SDS011;17168;49.164;9.060;2023-07-30T04:09:32;5.47;;;3.22;;
30378;SDS011;17168;49.164;9.060;2023-07-30T04:12:07;4.43;;;2.38;;
30378;SDS011;17168;49.164;9.060;2023-07-30T04:14:40;6.50;;;2.90;;
30378;SDS011;17168;49.164;9.060;2023-07-30T04:17:12;4.90;;;3.10;;
30378;SDS011;17168;49.164;9.060;2023-07-30T04:19:44;4.75;;;3.10;;
30378;SDS011;17168;49.164;9.060;2023-07-30T04:22:16;5.30;;;3.03;;
30378;SDS011;17168;49.164;9.060;2023-07-30T04:24:48;4.50;;;3.55;;
30378;SDS011;17168;49.164;9.060;2023-07-30T04:30:27;7.05;;;3.85;;
30378;SDS011;17168;49.164;9.060;2023-07-30T04:32:59;5.95;;;4.07;;
30378;SDS011;17168;49.164;9.060;2023-07-30T04:35:32;6.10;;;4.43;;
30378;SDS011;17168;49.164;9.060;2023-07-30T04:38:04;5.45;;;3.33;;
30378;SDS011;17168;49.164;9.060;2023-07-30T04:40:36;5.95;;;3.67;;
30378;SDS011;17168;49.164;9.060;2023-07-30T04:43:11;7.55;;;3.55;;
30378;SDS011;17168;49.164;9.060;2023-07-30T04:45:43;4.80;;;3.30;;
30378;SDS011;17168;49.164;9.060;2023-07-30T04:48:15;5.65;;;3.78;;
30378;SDS011;17168;49.164;9.060;2023-07-30T04:50:47;6.70;;;3.15;;
30378;SDS011;17168;49.164;9.060;2023-07-30T04:53:19;5.38;;;3.60;;
30378;SDS011;17168;49.164;9.060;2023-07-30T04:55:54;6.30;;;3.78;;
30378;SDS011;17168;49.164;9.060;2023-07-30T04:58:30;6.35;;;3.88;;
30378;SDS011;17168;49.164;9.060;2023-07-30T05:01:02;6.32;;;3.88;;
30378;SDS011;17168;49.164;9.060;2023-07-30T05:03:34;5.63;;;3.03;;
30378;SDS011;17168;49.164;9.060;2023-07-30T05:12:42;8.75;;;5.03;;
30378;SDS011;17168;49.164;9.060;2023-07-30T05:15:17;8.35;;;4.88;;
30378;SDS011;17168;49.164;9.060;2023-07-30T05:17:49;7.15;;;4.38;;
30378;SDS011;17168;49.164;9.060;2023-07-30T05:20:22;4.93;;;2.30;;
30378;SDS011;17168;49.164;9.060;2023-07-30T05:22:56;5.13;;;1.85;;
30378;SDS011;17168;49.164;9.060;2023-07-30T05:25:28;5.00;;;2.45;;
30378;SDS011;17168;49.164;9.060;2023-07-30T05:28:04;4.60;;;2.60;;
30378;SDS011;17168;49.164;9.060;2023-07-30T05:30:39;2.92;;;2.08;;
30378;SDS011;17168;49.164;9.060;2023-07-30T05:33:11;3.92;;;1.85;;
30378;SDS011;17168;49.164;9.060;2023-07-30T05:35:43;4.20;;;2.33;;
30378;SDS011;17168;49.164;9.060;2023-07-30T05:38:17;3.25;;;1.90;;
30378;SDS011;17168;49.164;9.060;2023-07-30T05:40:49;3.83;;;2.42;;
30378;SDS011;17168;49.164;9.060;2023-07-30T05:43:22;4.45;;;2.97;;
30378;SDS011;17168;49.164;9.060;2023-07-30T05:45:57;5.28;;;2.67;;
30378;SDS011;17168;49.164;9.060;2023-07-30T05:48:29;4.63;;;2.78;;
30378;SDS011;17168;49.164;9.060;2023-07-30T05:51:02;3.35;;;1.83;;
30378;SDS011;17168;49.164;9.060;2023-07-30T05:53:34;3.25;;;2.00;;
30378;SDS011;17168;49.164;9.060;2023-07-30T05:56:06;3.33;;;1.65;;
30378;SDS011;17168;49.164;9.060;2023-07-30T05:58:41;3.67;;;1.75;;
30378;SDS011;17168;49.164;9.060;2023-07-30T06:01:17;3.53;;;1.55;;
30378;SDS011;17168;49.164;9.060;2023-07-30T06:03:49;5.18;;;2.50;;
30378;SDS011;17168;49.164;9.060;2023-07-30T06:06:22;4.03;;;2.28;;
30378;SDS011;17168;49.164;9.060;2023-07-30T06:08:59;3.88;;;2.33;;
30378;SDS011;17168;49.164;9.060;2023-07-30T06:11:31;3.17;;;2.00;;
30378;SDS011;17168;49.164;9.060;2023-07-30T06:14:03;4.47;;;2.40;;
30378;SDS011;17168;49.164;9.060;2023-07-30T06:16:39;4.57;;;2.13;;
30378;SDS011;17168;49.164;9.060;2023-07-30T06:19:11;5.10;;;2.08;;
30378;SDS011;17168;49.164;9.060;2023-07-30T06:21:44;2.47;;;1.50;;
30378;SDS011;17168;49.164;9.060;2023-07-30T06:24:19;8.15;;;2.78;;
30378;SDS011;17168;49.164;9.060;2023-07-30T06:26:52;4.95;;;2.17;;
30378;SDS011;17168;49.164;9.060;2023-07-30T06:29:33;4.00;;;1.80;;
30378;SDS011;17168;49.164;9.060;2023-07-30T06:32:20;3.70;;;2.35;;
30378;SDS011;17168;49.164;9.060;2023-07-30T06:35:03;3.75;;;1.48;;
30378;SDS011;17168;49.164;9.060;2023-07-30T06:37:43;2.53;;;1.23;;
30378;SDS011;17168;49.164;9.060;2023-07-30T06:40:19;2.55;;;1.55;;
30378;SDS011;17168;49.164;9.060;2023-07-30T06:43:09;2.90;;;1.70;;
30378;SDS011;17168;49.164;9.060;2023-07-30T06:45:42;3.25;;;1.65;;
30378;SDS011;17168;49.164;9.060;2023-07-30T06:48:25;2.72;;;1.60;;
30378;SDS011;17168;49.164;9.060;2023-07-30T06:50:58;3.30;;;1.58;;
30378;SDS011;17168;49.164;9.060;2023-07-30T06:53:37;4.35;;;2.00;;
30378;SDS011;17168;49.164;9.060;2023-07-30T06:56:21;4.70;;;1.88;;
30378;SDS011;17168;49.164;9.060;2023-07-30T06:59:07;5.70;;;2.30;;
30378;SDS011;17168;49.164;9.060;2023-07-30T07:01:40;4.07;;;2.53;;
30378;SDS011;17168;49.164;9.060;2023-07-30T07:04:19;4.55;;;2.45;;
30378;SDS011;17168;49.164;9.060;2023-07-30T07:06:55;4.68;;;2.40;;
30378;SDS011;17168;49.164;9.060;2023-07-30T07:09:34;3.30;;;1.77;;
30378;SDS011;17168;49.164;9.060;2023-07-30T07:12:10;3.83;;;2.25;;
30378;SDS011;17168;49.164;9.060;2023-07-30T07:14:47;3.47;;;2.53;;
30378;SDS011;17168;49.164;9.060;2023-07-30T07:17:20;4.38;;;2.78;;
30378;SDS011;17168;49.164;9.060;2023-07-30T07:20:03;4.80;;;2.13;;
30378;SDS011;17168;49.164;9.060;2023-07-30T07:22:46;5.88;;;2.15;;
30378;SDS011;17168;49.164;9.060;2023-07-30T07:25:20;3.33;;;1.65;;
30378;SDS011;17168;49.164;9.060;2023-07-30T07:27:54;3.45;;;2.20;;
30378;SDS011;17168;49.164;9.060;2023-07-30T07:30:29;2.58;;;1.67;;
30378;SDS011;17168;49.164;9.060;2023-07-30T07:33:12;4.85;;;2.50;;
30378;SDS011;17168;49.164;9.060;2023-07-30T07:38:44;5.03;;;2.30;;
30378;SDS011;17168;49.164;9.060;2023-07-30T07:41:20;2.72;;;2.00;;
30378;SDS011;17168;49.164;9.060;2023-07-30T07:43:54;3.22;;;2.28;;
30378;SDS011;17168;49.164;9.060;2023-07-30T07:46:27;3.35;;;1.60;;
30378;SDS011;17168;49.164;9.060;2023-07-30T07:49:00;2.67;;;1.30;;
30378;SDS011;17168;49.164;9.060;2023-07-30T07:51:36;1.00;;;0.65;;
30378;SDS011;17168;49.164;9.060;2023-07-30T07:54:19;1.95;;;0.43;;
30378;SDS011;17168;49.164;9.060;2023-07-30T07:56:58;1.70;;;1.08;;
30378;SDS011;17168;49.164;9.060;2023-07-30T07:59:37;1.42;;;0.70;;
30378;SDS011;17168;49.164;9.060;2023-07-30T08:02:11;2.17;;;1.35;;
30378;SDS011;17168;49.164;9.060;2023-07-30T08:04:54;0.52;;;0.38;;
30378;SDS011;17168;49.164;9.060;2023-07-30T08:07:40;2.58;;;1.50;;
30378;SDS011;17168;49.164;9.060;2023-07-30T08:10:22;4.10;;;1.60;;
30378;SDS011;17168;49.164;9.060;2023-07-30T08:13:08;3.47;;;1.83;;
30378;SDS011;17168;49.164;9.060;2023-07-30T08:15:55;3.05;;;2.00;;
30378;SDS011;17168;49.164;9.060;2023-07-30T08:18:39;3.30;;;1.75;;
30378;SDS011;17168;49.164;9.060;2023-07-30T08:21:18;3.30;;;2.22;;
30378;SDS011;17168;49.164;9.060;2023-07-30T08:23:59;2.85;;;1.67;;
30378;SDS011;17168;49.164;9.060;2023-07-30T08:26:45;3.35;;;1.95;;
30378;SDS011;17168;49.164;9.060;2023-07-30T08:29:28;3.33;;;2.00;;
30378;SDS011;17168;49.164;9.060;2023-07-30T08:32:04;3.10;;;1.70;;
30378;SDS011;17168;49.164;9.060;2023-07-30T08:34:59;2.72;;;1.60;;
30378;SDS011;17168;49.164;9.060;2023-07-30T08:37:32;3.28;;;2.17;;
30378;SDS011;17168;49.164;9.060;2023-07-30T08:40:16;3.38;;;1.80;;
30378;SDS011;17168;49.164;9.060;2023-07-30T08:42:57;3.08;;;2.00;;
30378;SDS011;17168;49.164;9.060;2023-07-30T08:45:35;2.05;;;1.25;;
30378;SDS011;17168;49.164;9.060;2023-07-30T08:48:16;4.20;;;2.45;;
30378;SDS011;17168;49.164;9.060;2023-07-30T08:50:50;5.05;;;2.33;;
30378;SDS011;17168;49.164;9.060;2023-07-30T08:53:33;3.70;;;2.03;;
30378;SDS011;17168;49.164;9.060;2023-07-30T08:56:16;2.45;;;2.03;;
30378;SDS011;17168;49.164;9.060;2023-07-30T08:58:53;3.03;;;1.95;;
30378;SDS011;17168;49.164;9.060;2023-07-30T09:01:34;3.13;;;2.55;;
30378;SDS011;17168;49.164;9.060;2023-07-30T09:04:10;3.72;;;3.20;;
30378;SDS011;17168;49.164;9.060;2023-07-30T09:06:47;3.47;;;2.75;;
30378;SDS011;17168;49.164;9.060;2023-07-30T09:09:24;4.60;;;3.20;;
30378;SDS011;17168;49.164;9.060;2023-07-30T09:12:00;1.85;;;1.33;;
30378;SDS011;17168;49.164;9.060;2023-07-30T09:14:35;4.20;;;3.33;;
30378;SDS011;17168;49.164;9.060;2023-07-30T09:17:10;3.72;;;2.53;;
30378;SDS011;17168;49.164;9.060;2023-07-30T09:19:48;3.22;;;2.55;;
30378;SDS011;17168;49.164;9.060;2023-07-30T09:22:26;4.93;;;2.88;;
30378;SDS011;17168;49.164;9.060;2023-07-30T09:25:06;5.10;;;2.70;;
30378;SDS011;17168;49.164;9.060;2023-07-30T09:27:43;4.68;;;2.67;;
30378;SDS011;17168;49.164;9.060;2023-07-30T09:30:29;2.63;;;2.28;;
30378;SDS011;17168;49.164;9.060;2023-07-30T09:33:10;3.15;;;1.65;;
30378;SDS011;17168;49.164;9.060;2023-07-30T09:35:49;2.88;;;1.42;;
30378;SDS011;17168;49.164;9.060;2023-07-30T09:38:24;3.40;;;2.28;;
30378;SDS011;17168;49.164;9.060;2023-07-30T09:40:59;2.75;;;2.22;;
30378;SDS011;17168;49.164;9.060;2023-07-30T09:43:35;3.13;;;1.90;;
30378;SDS011;17168;49.164;9.060;2023-07-30T09:46:07;2.40;;;1.02;;
30378;SDS011;17168;49.164;9.060;2023-07-30T09:48:40;2.25;;;1.55;;
30378;SDS011;17168;49.164;9.060;2023-07-30T09:51:14;1.80;;;1.17;;
30378;SDS011;17168;49.164;9.060;2023-07-30T09:53:47;1.98;;;1.40;;
30378;SDS011;17168;49.164;9.060;2023-07-30T09:56:20;1.83;;;1.20;;
30378;SDS011;17168;49.164;9.060;2023-07-30T09:58:58;2.40;;;1.70;;
30378;SDS011;17168;49.164;9.060;2023-07-30T10:01:31;3.33;;;2.05;;
30378;SDS011;17168;49.164;9.060;2023-07-30T10:04:18;2.30;;;1.42;;
30378;SDS011;17168;49.164;9.060;2023-07-30T10:06:52;2.85;;;1.73;;
30378;SDS011;17168;49.164;9.060;2023-07-30T10:09:35;2.00;;;1.80;;
30378;SDS011;17168;49.164;9.060;2023-07-30T10:12:15;1.95;;;0.88;;
30378;SDS011;17168;49.164;9.060;2023-07-30T10:14:52;1.42;;;0.70;;
30378;SDS011;17168;49.164;9.060;2023-07-30T10:21:06;4.07;;;1.92;;
30378;SDS011;17168;49.164;9.060;2023-07-30T10:23:45;1.73;;;1.23;;
30378;SDS011;17168;49.164;9.060;2023-07-30T10:26:18;3.13;;;1.40;;
30378;SDS011;17168;49.164;9.060;2023-07-30T10:29:11;2.75;;;1.83;;
30378;SDS011;17168;49.164;9.060;2023-07-30T10:31:51;2.38;;;1.27;;
30378;SDS011;17168;49.164;9.060;2023-07-30T10:34:25;1.80;;;1.15;;
30378;SDS011;17168;49.164;9.060;2023-07-30T10:37:00;2.28;;;1.05;;
30378;SDS011;17168;49.164;9.060;2023-07-30T10:39:33;2.25;;;1.35;;
30378;SDS011;17168;49.164;9.060;2023-07-30T10:42:10;0.80;;;0.32;;
30378;SDS011;17168;49.164;9.060;2023-07-30T10:44:48;2.72;;;1.20;;
30378;SDS011;17168;49.164;9.060;2023-07-30T10:47:24;1.67;;;1.30;;
30378;SDS011;17168;49.164;9.060;2023-07-30T10:50:08;1.75;;;0.85;;
30378;SDS011;17168;49.164;9.060;2023-07-30T10:55:17;0.98;;;0.50;;
30378;SDS011;17168;49.164;9.060;2023-07-30T10:57:49;3.42;;;1.20;;
30378;SDS011;17168;49.164;9.060;2023-07-30T11:00:22;1.65;;;1.15;;
30378;SDS011;17168;49.164;9.060;2023-07-30T11:03:02;1.65;;;0.98;;
30378;SDS011;17168;49.164;9.060;2023-07-30T11:05:37;0.77;;;0.38;;
30378;SDS011;17168;49.164;9.060;2023-07-30T11:08:10;1.38;;;0.82;;
30378;SDS011;17168;49.164;9.060;2023-07-30T11:10:47;2.75;;;1.10;;
30378;SDS011;17168;49.164;9.060;2023-07-30T11:13:23;0.65;;;0.17;;
30378;SDS011;17168;49.164;9.060;2023-07-30T11:15:58;1.98;;;0.80;;
30378;SDS011;17168;49.164;9.060;2023-07-30T11:18:38;2.72;;;0.82;;
30378;SDS011;17168;49.164;9.060;2023-07-30T11:21:21;1.58;;;0.65;;
30378;SDS011;17168;49.164;9.060;2023-07-30T11:23:53;4.70;;;1.67;;
30378;SDS011;17168;49.164;9.060;2023-07-30T11:26:26;2.65;;;0.73;;
30378;SDS011;17168;49.164;9.060;2023-07-30T11:28:58;2.03;;;0.82;;
30378;SDS011;17168;49.164;9.060;2023-07-30T11:31:30;0.95;;;0.40;;
30378;SDS011;17168;49.164;9.060;2023-07-30T11:34:07;1.52;;;0.30;;
30378;SDS011;17168;49.164;9.060;2023-07-30T11:36:40;3.25;;;0.80;;
30378;SDS011;17168;49.164;9.060;2023-07-30T11:39:13;2.08;;;0.60;;
30378;SDS011;17168;49.164;9.060;2023-07-30T11:41:47;0.88;;;0.50;;
30378;SDS011;17168;49.164;9.060;2023-07-30T11:44:35;1.40;;;0.77;;
30378;SDS011;17168;49.164;9.060;2023-07-30T11:47:12;1.95;;;0.38;;
30378;SDS011;17168;49.164;9.060;2023-07-30T11:49:57;1.67;;;0.40;;
30378;SDS011;17168;49.164;9.060;2023-07-30T12:02:08;1.17;;;0.50;;
30378;SDS011;17168;49.164;9.060;2023-07-30T12:05:58;0.80;;;0.22;;
30378;SDS011;17168;49.164;9.060;2023-07-30T12:08:39;0.82;;;0.38;;
30378;SDS011;17168;49.164;9.060;2023-07-30T12:11:18;1.17;;;0.52;;
30378;SDS011;17168;49.164;9.060;2023-07-30T12:14:00;1.45;;;0.55;;
30378;SDS011;17168;49.164;9.060;2023-07-30T12:16:32;0.68;;;0.20;;
30378;SDS011;17168;49.164;9.060;2023-07-30T12:19:05;1.52;;;0.40;;
30378;SDS011;17168;49.164;9.060;2023-07-30T12:21:40;1.45;;;0.30;;
30378;SDS011;17168;49.164;9.060;2023-07-30T12:24:13;0.90;;;0.50;;
30378;SDS011;17168;49.164;9.060;2023-07-30T12:26:55;2.08;;;0.60;;
30378;SDS011;17168;49.164;9.060;2023-07-30T12:29:30;1.92;;;0.57;;
30378;SDS011;17168;49.164;9.060;2023-07-30T12:32:03;0.95;;;0.40;;
30378;SDS011;17168;49.164;9.060;2023-07-30T12:37:37;2.03;;;0.20;;
30378;SDS011;17168;49.164;9.060;2023-07-30T12:40:13;1.00;;;0.38;;
30378;SDS011;17168;49.164;9.060;2023-07-30T12:43:05;1.13;;;0.47;;
30378;SDS011;17168;49.164;9.060;2023-07-30T12:45:38;0.73;;;0.20;;
30378;SDS011;17168;49.164;9.060;2023-07-30T12:48:14;1.05;;;0.52;;
30378;SDS011;17168;49.164;9.060;2023-07-30T12:50:49;1.75;;;0.60;;
30378;SDS011;17168;49.164;9.060;2023-07-30T12:53:24;2.53;;;0.43;;
30378;SDS011;17168;49.164;9.060;2023-07-30T12:55:57;2.00;;;0.40;;
30378;SDS011;17168;49.164;9.060;2023-07-30T12:58:32;1.38;;;0.45;;
30378;SDS011;17168;49.164;9.060;2023-07-30T13:01:04;1.13;;;0.63;;
30378;SDS011;17168;49.164;9.060;2023-07-30T13:03:47;1.15;;;0.68;;
30378;SDS011;17168;49.164;9.060;2023-07-30T13:06:21;1.35;;;0.60;;
30378;SDS011;17168;49.164;9.060;2023-07-30T13:08:56;1.90;;;0.57;;
30378;SDS011;17168;49.164;9.060;2023-07-30T13:11:29;3.05;;;0.45;;
30378;SDS011;17168;49.164;9.060;2023-07-30T13:14:01;2.28;;;0.70;;
30378;SDS011;17168;49.164;9.060;2023-07-30T13:16:35;1.45;;;0.65;;
30378;SDS011;17168;49.164;9.060;2023-07-30T13:19:08;1.05;;;0.30;;
30378;SDS011;17168;49.164;9.060;2023-07-30T13:21:49;2.08;;;0.93;;
30378;SDS011;17168;49.164;9.060;2023-07-30T13:24:26;1.83;;;0.95;;
30378;SDS011;17168;49.164;9.060;2023-07-30T13:27:03;0.82;;;0.52;;
30378;SDS011;17168;49.164;9.060;2023-07-30T13:29:37;1.98;;;0.52;;
30378;SDS011;17168;49.164;9.060;2023-07-30T13:32:10;2.25;;;0.50;;
30378;SDS011;17168;49.164;9.060;2023-07-30T13:34:43;2.13;;;0.50;;
30378;SDS011;17168;49.164;9.060;2023-07-30T13:37:18;1.60;;;0.52;;
30378;SDS011;17168;49.164;9.060;2023-07-30T13:39:53;1.83;;;0.55;;
30378;SDS011;17168;49.164;9.060;2023-07-30T13:42:25;3.00;;;0.65;;
30378;SDS011;17168;49.164;9.060;2023-07-30T13:44:58;2.20;;;0.70;;
30378;SDS011;17168;49.164;9.060;2023-07-30T13:47:31;3.22;;;0.70;;
30378;SDS011;17168;49.164;9.060;2023-07-30T13:50:04;2.65;;;0.80;;
30378;SDS011;17168;49.164;9.060;2023-07-30T13:52:38;1.85;;;0.63;;
30378;SDS011;17168;49.164;9.060;2023-07-30T13:55:13;1.85;;;1.10;;
30378;SDS011;17168;49.164;9.060;2023-07-30T13:57:48;2.13;;;0.35;;
30378;SDS011;17168;49.164;9.060;2023-07-30T14:00:20;2.75;;;0.82;;
30378;SDS011;17168;49.164;9.060;2023-07-30T14:02:55;2.05;;;0.93;;
30378;SDS011;17168;49.164;9.060;2023-07-30T14:05:29;2.25;;;0.90;;
30378;SDS011;17168;49.164;9.060;2023-07-30T14:08:02;3.08;;;0.75;;
30378;SDS011;17168;49.164;9.060;2023-07-30T14:10:37;2.25;;;0.82;;
30378;SDS011;17168;49.164;9.060;2023-07-30T14:13:09;2.20;;;0.70;;
30378;SDS011;17168;49.164;9.060;2023-07-30T14:15:42;3.30;;;0.57;;
30378;SDS011;17168;49.164;9.060;2023-07-30T14:18:14;2.08;;;1.00;;
30378;SDS011;17168;49.164;9.060;2023-07-30T14:20:47;2.00;;;1.00;;
30378;SDS011;17168;49.164;9.060;2023-07-30T14:23:25;1.27;;;0.50;;
30378;SDS011;17168;49.164;9.060;2023-07-30T14:26:01;2.90;;;0.70;;
30378;SDS011;17168;49.164;9.060;2023-07-30T14:28:33;1.17;;;0.57;;
30378;SDS011;17168;49.164;9.060;2023-07-30T14:31:06;2.08;;;0.70;;
30378;SDS011;17168;49.164;9.060;2023-07-30T14:33:38;2.25;;;1.05;;
30378;SDS011;17168;49.164;9.060;2023-07-30T14:36:11;1.73;;;0.88;;
30378;SDS011;17168;49.164;9.060;2023-07-30T14:38:43;2.20;;;0.60;;
30378;SDS011;17168;49.164;9.060;2023-07-30T14:41:18;2.22;;;0.73;;
30378;SDS011;17168;49.164;9.060;2023-07-30T14:43:51;3.08;;;0.82;;
30378;SDS011;17168;49.164;9.060;2023-07-30T14:46:23;0.45;;;0.20;;
30378;SDS011;17168;49.164;9.060;2023-07-30T14:48:55;2.17;;;0.43;;
30378;SDS011;17168;49.164;9.060;2023-07-30T14:51:28;1.88;;;0.50;;
30378;SDS011;17168;49.164;9.060;2023-07-30T14:54:00;1.27;;;0.32;;
30378;SDS011;17168;49.164;9.060;2023-07-30T14:56:35;3.15;;;0.65;;
30378;SDS011;17168;49.164;9.060;2023-07-30T14:59:08;1.58;;;0.63;;
30378;SDS011;17168;49.164;9.060;2023-07-30T15:01:40;2.00;;;0.50;;
30378;SDS011;17168;49.164;9.060;2023-07-30T15:04:13;1.85;;;0.45;;
30378;SDS011;17168;49.164;9.060;2023-07-30T15:06:46;2.85;;;0.63;;
30378;SDS011;17168;49.164;9.060;2023-07-30T15:09:19;2.60;;;0.68;;
30378;SDS011;17168;49.164;9.060;2023-07-30T15:11:54;3.85;;;0.80;;
30378;SDS011;17168;49.164;9.060;2023-07-30T15:14:26;1.15;;;0.32;;
30378;SDS011;17168;49.164;9.060;2023-07-30T15:16:59;1.60;;;0.30;;
30378;SDS011;17168;49.164;9.060;2023-07-30T15:19:31;1.75;;;0.40;;
30378;SDS011;17168;49.164;9.060;2023-07-30T15:22:12;2.78;;;0.57;;
30378;SDS011;17168;49.164;9.060;2023-07-30T15:24:45;1.75;;;0.63;;
30378;SDS011;17168;49.164;9.060;2023-07-30T15:27:20;2.47;;;0.52;;
30378;SDS011;17168;49.164;9.060;2023-07-30T15:29:52;2.35;;;0.82;;
30378;SDS011;17168;49.164;9.060;2023-07-30T15:32:25;2.08;;;1.10;;
30378;SDS011;17168;49.164;9.060;2023-07-30T15:35:01;1.67;;;0.43;;
30378;SDS011;17168;49.164;9.060;2023-07-30T15:37:34;2.60;;;0.55;;
30378;SDS011;17168;49.164;9.060;2023-07-30T15:40:07;2.63;;;0.55;;
30378;SDS011;17168;49.164;9.060;2023-07-30T15:42:42;2.30;;;0.50;;
30378;SDS011;17168;49.164;9.060;2023-07-30T15:45:15;1.75;;;0.35;;
30378;SDS011;17168;49.164;9.060;2023-07-30T15:47:47;1.77;;;0.45;;
30378;SDS011;17168;49.164;9.060;2023-07-30T15:50:20;1.52;;;0.57;;
30378;SDS011;17168;49.164;9.060;2023-07-30T15:52:55;1.20;;;0.20;;
30378;SDS011;17168;49.164;9.060;2023-07-30T15:55:28;2.50;;;0.50;;
30378;SDS011;17168;49.164;9.060;2023-07-30T15:58:02;2.63;;;0.68;;
30378;SDS011;17168;49.164;9.060;2023-07-30T16:00:35;0.73;;;0.43;;
30378;SDS011;17168;49.164;9.060;2023-07-30T16:03:08;2.45;;;0.30;;
30378;SDS011;17168;49.164;9.060;2023-07-30T16:05:45;2.67;;;0.60;;
30378;SDS011;17168;49.164;9.060;2023-07-30T16:08:18;1.38;;;0.55;;
30378;SDS011;17168;49.164;9.060;2023-07-30T16:10:51;3.35;;;0.43;;